sensor_id;sensor_type;location;lat;lon;timestamp;P1;durP1;ratioP1;P2;durP2;ratioP2
5569;SDS011;2808;51.240;6.794;2024-03-06T00:02:20;39.63;;;20.10;;
5569;SDS011;2808;51.240;6.794;2024-03-06T00:04:48;38.33;;;19.20;;
5569;SDS011;2808;51.240;6.794;2024-03-06T00:07:15;38.33;;;18.30;;
5569;SDS011;2808;51.240;6.794;2024-03-06T00:09:42;34.80;;;17.50;;
5569;SDS011;2808;51.240;6.794;2024-03-06T00:12:09;37.47;;;18.07;;
5569;SDS011;2808;51.240;6.794;2024-03-06T00:14:41;33.47;;;16.70;;
5569;SDS011;2808;51.240;6.794;2024-03-06T00:17:09;36.83;;;17.60;;
5569;SDS011;2808;51.240;6.794;2024-03-06T00:19:39;36.60;;;18.13;;
5569;SDS011;2808;51.240;6.794;2024-03-06T00:22:08;34.37;;;16.70;;
5569;SDS011;2808;51.240;6.794;2024-03-06T00:24:35;34.83;;;17.17;;
5569;SDS011;2808;51.240;6.794;2024-03-06T00:27:03;37.43;;;19.20;;
5569;SDS011;2808;51.240;6.794;2024-03-06T00:29:31;31.87;;;17.53;;
5569;SDS011;2808;51.240;6.794;2024-03-06T00:32:03;32.40;;;17.77;;
5569;SDS011;2808;51.240;6.794;2024-03-06T00:34:30;40.13;;;18.23;;
5569;SDS011;2808;51.240;6.794;2024-03-06T00:36:58;41.50;;;19.73;;
5569;SDS011;2808;51.240;6.794;2024-03-06T00:39:25;36.80;;;19.43;;
5569;SDS011;2808;51.240;6.794;2024-03-06T00:41:53;38.37;;;17.17;;
5569;SDS011;2808;51.240;6.794;2024-03-06T00:44:21;35.40;;;17.50;;
5569;SDS011;2808;51.240;6.794;2024-03-06T00:46:48;34.27;;;16.63;;
5569;SDS011;2808;51.240;6.794;2024-03-06T00:49:17;41.93;;;19.03;;
5569;SDS011;2808;51.240;6.794;2024-03-06T00:51:45;39.50;;;19.60;;
5569;SDS011;2808;51.240;6.794;2024-03-06T00:54:12;42.00;;;18.80;;
5569;SDS011;2808;51.240;6.794;2024-03-06T00:56:39;36.40;;;18.50;;
5569;SDS011;2808;51.240;6.794;2024-03-06T00:59:07;33.67;;;16.93;;
5569;SDS011;2808;51.240;6.794;2024-03-06T01:01:35;38.83;;;17.70;;
5569;SDS011;2808;51.240;6.794;2024-03-06T01:04:10;36.60;;;19.40;;
5569;SDS011;2808;51.240;6.794;2024-03-06T01:06:40;33.97;;;17.57;;
5569;SDS011;2808;51.240;6.794;2024-03-06T01:09:11;40.00;;;18.30;;
5569;SDS011;2808;51.240;6.794;2024-03-06T01:11:38;39.80;;;17.40;;
5569;SDS011;2808;51.240;6.794;2024-03-06T01:14:06;36.33;;;17.67;;
5569;SDS011;2808;51.240;6.794;2024-03-06T01:16:33;39.90;;;17.87;;
5569;SDS011;2808;51.240;6.794;2024-03-06T01:19:01;35.13;;;17.43;;
5569;SDS011;2808;51.240;6.794;2024-03-06T01:21:28;37.90;;;18.20;;
5569;SDS011;2808;51.240;6.794;2024-03-06T01:23:57;37.10;;;18.20;;
5569;SDS011;2808;51.240;6.794;2024-03-06T01:26:25;35.37;;;18.10;;
5569;SDS011;2808;51.240;6.794;2024-03-06T01:28:52;35.27;;;18.40;;
5569;SDS011;2808;51.240;6.794;2024-03-06T01:31:20;35.43;;;17.07;;
5569;SDS011;2808;51.240;6.794;2024-03-06T01:33:47;32.87;;;17.97;;
5569;SDS011;2808;51.240;6.794;2024-03-06T01:36:15;37.30;;;18.50;;
5569;SDS011;2808;51.240;6.794;2024-03-06T01:38:42;34.67;;;16.73;;
5569;SDS011;2808;51.240;6.794;2024-03-06T01:41:14;33.13;;;18.00;;
5569;SDS011;2808;51.240;6.794;2024-03-06T01:43:41;34.40;;;18.10;;
5569;SDS011;2808;51.240;6.794;2024-03-06T01:46:09;37.83;;;18.93;;
5569;SDS011;2808;51.240;6.794;2024-03-06T01:48:37;36.43;;;16.83;;
5569;SDS011;2808;51.240;6.794;2024-03-06T01:51:05;34.53;;;17.07;;
5569;SDS011;2808;51.240;6.794;2024-03-06T01:53:33;34.17;;;17.17;;
5569;SDS011;2808;51.240;6.794;2024-03-06T01:56:03;34.20;;;16.33;;
5569;SDS011;2808;51.240;6.794;2024-03-06T01:58:32;37.67;;;17.60;;
5569;SDS011;2808;51.240;6.794;2024-03-06T02:01:03;35.43;;;17.67;;
5569;SDS011;2808;51.240;6.794;2024-03-06T02:03:31;35.23;;;16.90;;
5569;SDS011;2808;51.240;6.794;2024-03-06T02:05:59;37.20;;;17.60;;
5569;SDS011;2808;51.240;6.794;2024-03-06T02:08:28;31.03;;;16.13;;
5569;SDS011;2808;51.240;6.794;2024-03-06T02:10:56;36.17;;;17.47;;
5569;SDS011;2808;51.240;6.794;2024-03-06T02:13:25;39.40;;;18.00;;
5569;SDS011;2808;51.240;6.794;2024-03-06T02:15:54;34.90;;;17.20;;
5569;SDS011;2808;51.240;6.794;2024-03-06T02:18:21;35.20;;;17.13;;
5569;SDS011;2808;51.240;6.794;2024-03-06T02:20:50;32.97;;;16.53;;
5569;SDS011;2808;51.240;6.794;2024-03-06T02:23:17;35.63;;;17.37;;
5569;SDS011;2808;51.240;6.794;2024-03-06T02:25:47;37.00;;;17.10;;
5569;SDS011;2808;51.240;6.794;2024-03-06T02:28:15;37.33;;;18.67;;
5569;SDS011;2808;51.240;6.794;2024-03-06T02:30:43;38.70;;;17.60;;
5569;SDS011;2808;51.240;6.794;2024-03-06T02:33:13;30.90;;;15.83;;
5569;SDS011;2808;51.240;6.794;2024-03-06T02:35:40;37.70;;;17.87;;
5569;SDS011;2808;51.240;6.794;2024-03-06T02:38:11;36.60;;;17.67;;
5569;SDS011;2808;51.240;6.794;2024-03-06T02:40:42;35.07;;;18.27;;
5569;SDS011;2808;51.240;6.794;2024-03-06T02:43:10;36.13;;;17.90;;
5569;SDS011;2808;51.240;6.794;2024-03-06T02:45:37;35.07;;;18.87;;
5569;SDS011;2808;51.240;6.794;2024-03-06T02:48:05;37.47;;;18.50;;
5569;SDS011;2808;51.240;6.794;2024-03-06T02:50:33;38.10;;;19.93;;
5569;SDS011;2808;51.240;6.794;2024-03-06T02:53:00;38.30;;;18.10;;
5569;SDS011;2808;51.240;6.794;2024-03-06T02:55:29;35.33;;;17.43;;
5569;SDS011;2808;51.240;6.794;2024-03-06T02:57:57;45.53;;;19.03;;
5569;SDS011;2808;51.240;6.794;2024-03-06T03:00:27;43.97;;;18.83;;
5569;SDS011;2808;51.240;6.794;2024-03-06T03:02:56;43.67;;;19.67;;
5569;SDS011;2808;51.240;6.794;2024-03-06T03:05:24;34.93;;;17.97;;
5569;SDS011;2808;51.240;6.794;2024-03-06T03:07:51;41.03;;;19.03;;
5569;SDS011;2808;51.240;6.794;2024-03-06T03:10:18;46.50;;;19.80;;
5569;SDS011;2808;51.240;6.794;2024-03-06T03:12:47;48.40;;;19.43;;
5569;SDS011;2808;51.240;6.794;2024-03-06T03:15:15;43.33;;;19.43;;
5569;SDS011;2808;51.240;6.794;2024-03-06T03:17:42;40.43;;;19.07;;
5569;SDS011;2808;51.240;6.794;2024-03-06T03:20:10;44.33;;;19.83;;
5569;SDS011;2808;51.240;6.794;2024-03-06T03:22:38;46.07;;;20.37;;
5569;SDS011;2808;51.240;6.794;2024-03-06T03:25:07;42.10;;;20.40;;
5569;SDS011;2808;51.240;6.794;2024-03-06T03:27:36;41.47;;;20.10;;
5569;SDS011;2808;51.240;6.794;2024-03-06T03:30:05;46.10;;;21.27;;
5569;SDS011;2808;51.240;6.794;2024-03-06T03:32:35;45.50;;;21.60;;
5569;SDS011;2808;51.240;6.794;2024-03-06T03:35:02;44.73;;;22.43;;
5569;SDS011;2808;51.240;6.794;2024-03-06T03:37:31;47.40;;;23.20;;
5569;SDS011;2808;51.240;6.794;2024-03-06T03:39:58;46.00;;;21.37;;
5569;SDS011;2808;51.240;6.794;2024-03-06T03:42:28;43.60;;;20.30;;
5569;SDS011;2808;51.240;6.794;2024-03-06T03:44:55;38.60;;;20.63;;
5569;SDS011;2808;51.240;6.794;2024-03-06T03:47:24;49.33;;;22.53;;
5569;SDS011;2808;51.240;6.794;2024-03-06T03:49:51;40.63;;;19.10;;
5569;SDS011;2808;51.240;6.794;2024-03-06T03:52:19;49.20;;;22.70;;
5569;SDS011;2808;51.240;6.794;2024-03-06T03:54:46;47.20;;;20.40;;
5569;SDS011;2808;51.240;6.794;2024-03-06T03:57:13;47.00;;;22.50;;
5569;SDS011;2808;51.240;6.794;2024-03-06T03:59:42;46.27;;;21.30;;
5569;SDS011;2808;51.240;6.794;2024-03-06T04:02:12;45.27;;;21.67;;
5569;SDS011;2808;51.240;6.794;2024-03-06T04:04:41;47.43;;;21.60;;
5569;SDS011;2808;51.240;6.794;2024-03-06T04:07:09;45.17;;;22.30;;
5569;SDS011;2808;51.240;6.794;2024-03-06T04:09:36;41.30;;;21.10;;
5569;SDS011;2808;51.240;6.794;2024-03-06T04:12:04;43.40;;;21.13;;
5569;SDS011;2808;51.240;6.794;2024-03-06T04:14:31;41.63;;;19.93;;
5569;SDS011;2808;51.240;6.794;2024-03-06T04:16:59;46.60;;;20.67;;
5569;SDS011;2808;51.240;6.794;2024-03-06T04:19:28;47.60;;;21.17;;
5569;SDS011;2808;51.240;6.794;2024-03-06T04:21:58;46.10;;;22.27;;
5569;SDS011;2808;51.240;6.794;2024-03-06T04:24:26;41.40;;;20.57;;
5569;SDS011;2808;51.240;6.794;2024-03-06T04:26:54;57.53;;;22.50;;
5569;SDS011;2808;51.240;6.794;2024-03-06T04:29:21;47.53;;;22.30;;
5569;SDS011;2808;51.240;6.794;2024-03-06T04:31:49;37.90;;;20.00;;
5569;SDS011;2808;51.240;6.794;2024-03-06T04:34:16;45.67;;;21.47;;
5569;SDS011;2808;51.240;6.794;2024-03-06T04:36:45;48.77;;;22.80;;
5569;SDS011;2808;51.240;6.794;2024-03-06T04:39:14;49.43;;;21.37;;
5569;SDS011;2808;51.240;6.794;2024-03-06T04:41:41;40.87;;;19.40;;
5569;SDS011;2808;51.240;6.794;2024-03-06T04:44:09;48.07;;;21.40;;
5569;SDS011;2808;51.240;6.794;2024-03-06T04:46:36;47.67;;;20.00;;
5569;SDS011;2808;51.240;6.794;2024-03-06T04:49:03;40.77;;;20.77;;
5569;SDS011;2808;51.240;6.794;2024-03-06T04:51:31;40.73;;;20.20;;
5569;SDS011;2808;51.240;6.794;2024-03-06T04:53:58;50.57;;;21.57;;
5569;SDS011;2808;51.240;6.794;2024-03-06T04:56:27;47.67;;;21.87;;
5569;SDS011;2808;51.240;6.794;2024-03-06T04:58:54;43.07;;;20.17;;
5569;SDS011;2808;51.240;6.794;2024-03-06T05:01:22;44.87;;;20.23;;
5569;SDS011;2808;51.240;6.794;2024-03-06T05:03:50;45.80;;;20.40;;
5569;SDS011;2808;51.240;6.794;2024-03-06T05:06:17;45.97;;;22.00;;
5569;SDS011;2808;51.240;6.794;2024-03-06T05:08:45;45.37;;;21.07;;
5569;SDS011;2808;51.240;6.794;2024-03-06T05:11:12;42.87;;;21.63;;
5569;SDS011;2808;51.240;6.794;2024-03-06T05:13:41;45.23;;;21.20;;
5569;SDS011;2808;51.240;6.794;2024-03-06T05:16:08;45.13;;;22.00;;
5569;SDS011;2808;51.240;6.794;2024-03-06T05:18:36;43.30;;;21.00;;
5569;SDS011;2808;51.240;6.794;2024-03-06T05:21:03;42.07;;;20.20;;
5569;SDS011;2808;51.240;6.794;2024-03-06T05:23:31;53.97;;;24.30;;
5569;SDS011;2808;51.240;6.794;2024-03-06T05:25:58;82.73;;;36.47;;
5569;SDS011;2808;51.240;6.794;2024-03-06T05:28:26;56.87;;;26.90;;
5569;SDS011;2808;51.240;6.794;2024-03-06T05:30:54;81.97;;;32.57;;
5569;SDS011;2808;51.240;6.794;2024-03-06T05:33:22;70.33;;;28.83;;
5569;SDS011;2808;51.240;6.794;2024-03-06T05:35:50;61.20;;;29.47;;
5569;SDS011;2808;51.240;6.794;2024-03-06T05:38:17;95.40;;;41.23;;
5569;SDS011;2808;51.240;6.794;2024-03-06T05:40:47;90.30;;;40.60;;
5569;SDS011;2808;51.240;6.794;2024-03-06T05:43:14;67.50;;;31.80;;
5569;SDS011;2808;51.240;6.794;2024-03-06T05:45:42;60.70;;;28.50;;
5569;SDS011;2808;51.240;6.794;2024-03-06T05:48:10;52.27;;;21.90;;
5569;SDS011;2808;51.240;6.794;2024-03-06T05:50:38;53.83;;;24.20;;
5569;SDS011;2808;51.240;6.794;2024-03-06T05:53:06;48.70;;;23.03;;
5569;SDS011;2808;51.240;6.794;2024-03-06T05:55:33;50.13;;;22.70;;
5569;SDS011;2808;51.240;6.794;2024-03-06T05:58:00;54.03;;;23.00;;
5569;SDS011;2808;51.240;6.794;2024-03-06T06:00:28;55.70;;;23.03;;
5569;SDS011;2808;51.240;6.794;2024-03-06T06:02:55;83.40;;;37.37;;
5569;SDS011;2808;51.240;6.794;2024-03-06T06:05:27;84.40;;;38.43;;
5569;SDS011;2808;51.240;6.794;2024-03-06T06:07:54;64.87;;;29.80;;
5569;SDS011;2808;51.240;6.794;2024-03-06T06:10:22;58.17;;;26.87;;
5569;SDS011;2808;51.240;6.794;2024-03-06T06:12:49;51.10;;;23.63;;
5569;SDS011;2808;51.240;6.794;2024-03-06T06:15:17;46.10;;;21.70;;
5569;SDS011;2808;51.240;6.794;2024-03-06T06:17:45;47.80;;;22.57;;
5569;SDS011;2808;51.240;6.794;2024-03-06T06:20:12;47.33;;;21.50;;
5569;SDS011;2808;51.240;6.794;2024-03-06T06:22:41;50.07;;;22.17;;
5569;SDS011;2808;51.240;6.794;2024-03-06T06:25:09;53.67;;;26.40;;
5569;SDS011;2808;51.240;6.794;2024-03-06T06:27:37;61.40;;;28.70;;
5569;SDS011;2808;51.240;6.794;2024-03-06T06:30:05;73.90;;;33.63;;
5569;SDS011;2808;51.240;6.794;2024-03-06T06:32:54;53.80;;;25.07;;
5569;SDS011;2808;51.240;6.794;2024-03-06T06:35:24;49.13;;;21.90;;
5569;SDS011;2808;51.240;6.794;2024-03-06T06:37:53;50.67;;;23.97;;
5569;SDS011;2808;51.240;6.794;2024-03-06T06:40:21;53.37;;;24.10;;
5569;SDS011;2808;51.240;6.794;2024-03-06T06:42:49;51.87;;;22.23;;
5569;SDS011;2808;51.240;6.794;2024-03-06T06:45:17;50.33;;;24.10;;
5569;SDS011;2808;51.240;6.794;2024-03-06T06:47:45;52.13;;;23.33;;
5569;SDS011;2808;51.240;6.794;2024-03-06T06:50:13;57.37;;;23.73;;
5569;SDS011;2808;51.240;6.794;2024-03-06T06:52:46;50.83;;;23.47;;
5569;SDS011;2808;51.240;6.794;2024-03-06T06:55:15;47.37;;;22.90;;
5569;SDS011;2808;51.240;6.794;2024-03-06T06:57:45;55.70;;;26.27;;
5569;SDS011;2808;51.240;6.794;2024-03-06T07:00:13;59.63;;;27.30;;
5569;SDS011;2808;51.240;6.794;2024-03-06T07:02:43;62.43;;;25.50;;
5569;SDS011;2808;51.240;6.794;2024-03-06T07:05:11;57.47;;;24.43;;
5569;SDS011;2808;51.240;6.794;2024-03-06T07:07:39;57.63;;;26.37;;
5569;SDS011;2808;51.240;6.794;2024-03-06T07:10:07;58.50;;;24.10;;
5569;SDS011;2808;51.240;6.794;2024-03-06T07:12:37;59.73;;;25.63;;
5569;SDS011;2808;51.240;6.794;2024-03-06T07:15:05;62.00;;;24.23;;
5569;SDS011;2808;51.240;6.794;2024-03-06T07:17:33;58.73;;;26.10;;
5569;SDS011;2808;51.240;6.794;2024-03-06T07:20:00;59.53;;;26.10;;
5569;SDS011;2808;51.240;6.794;2024-03-06T07:22:30;62.43;;;26.67;;
5569;SDS011;2808;51.240;6.794;2024-03-06T07:25:00;62.30;;;25.50;;
5569;SDS011;2808;51.240;6.794;2024-03-06T07:27:29;68.83;;;27.37;;
5569;SDS011;2808;51.240;6.794;2024-03-06T07:30:19;66.07;;;27.10;;
5569;SDS011;2808;51.240;6.794;2024-03-06T07:33:01;66.83;;;28.67;;
5569;SDS011;2808;51.240;6.794;2024-03-06T07:35:40;64.93;;;28.93;;
5569;SDS011;2808;51.240;6.794;2024-03-06T07:38:22;75.33;;;29.77;;
5569;SDS011;2808;51.240;6.794;2024-03-06T07:45:09;81.93;;;31.73;;
5569;SDS011;2808;51.240;6.794;2024-03-06T07:47:37;79.10;;;30.63;;
5569;SDS011;2808;51.240;6.794;2024-03-06T07:50:07;77.13;;;30.53;;
5569;SDS011;2808;51.240;6.794;2024-03-06T07:52:36;85.27;;;31.97;;
5569;SDS011;2808;51.240;6.794;2024-03-06T07:55:05;76.20;;;30.63;;
5569;SDS011;2808;51.240;6.794;2024-03-06T07:57:33;70.47;;;28.90;;
5569;SDS011;2808;51.240;6.794;2024-03-06T08:00:00;77.37;;;31.17;;
5569;SDS011;2808;51.240;6.794;2024-03-06T08:02:35;77.90;;;28.87;;
5569;SDS011;2808;51.240;6.794;2024-03-06T08:05:04;85.97;;;31.00;;
5569;SDS011;2808;51.240;6.794;2024-03-06T08:07:34;77.93;;;30.10;;
5569;SDS011;2808;51.240;6.794;2024-03-06T08:10:02;70.47;;;30.03;;
5569;SDS011;2808;51.240;6.794;2024-03-06T08:12:30;73.53;;;30.93;;
5569;SDS011;2808;51.240;6.794;2024-03-06T08:14:59;80.90;;;29.00;;
5569;SDS011;2808;51.240;6.794;2024-03-06T08:17:27;76.90;;;30.63;;
5569;SDS011;2808;51.240;6.794;2024-03-06T08:19:57;73.80;;;30.93;;
5569;SDS011;2808;51.240;6.794;2024-03-06T08:22:24;81.70;;;31.53;;
5569;SDS011;2808;51.240;6.794;2024-03-06T08:24:52;81.33;;;31.93;;
5569;SDS011;2808;51.240;6.794;2024-03-06T08:27:20;86.70;;;31.87;;
5569;SDS011;2808;51.240;6.794;2024-03-06T08:29:47;70.50;;;30.17;;
5569;SDS011;2808;51.240;6.794;2024-03-06T08:32:15;74.40;;;31.50;;
5569;SDS011;2808;51.240;6.794;2024-03-06T08:34:42;84.17;;;31.03;;
5569;SDS011;2808;51.240;6.794;2024-03-06T08:37:11;78.90;;;31.40;;
5569;SDS011;2808;51.240;6.794;2024-03-06T08:39:39;83.23;;;30.20;;
5569;SDS011;2808;51.240;6.794;2024-03-06T08:42:06;77.17;;;29.97;;
5569;SDS011;2808;51.240;6.794;2024-03-06T08:44:34;79.23;;;30.10;;
5569;SDS011;2808;51.240;6.794;2024-03-06T08:47:01;89.17;;;32.13;;
5569;SDS011;2808;51.240;6.794;2024-03-06T08:49:29;74.13;;;28.47;;
5569;SDS011;2808;51.240;6.794;2024-03-06T08:51:56;70.00;;;27.80;;
5569;SDS011;2808;51.240;6.794;2024-03-06T08:54:25;67.07;;;28.37;;
5569;SDS011;2808;51.240;6.794;2024-03-06T08:56:54;78.07;;;29.33;;
5569;SDS011;2808;51.240;6.794;2024-03-06T08:59:24;75.93;;;28.70;;
5569;SDS011;2808;51.240;6.794;2024-03-06T09:01:51;67.57;;;27.90;;
5569;SDS011;2808;51.240;6.794;2024-03-06T09:04:20;68.20;;;27.13;;
5569;SDS011;2808;51.240;6.794;2024-03-06T09:06:48;73.40;;;30.13;;
5569;SDS011;2808;51.240;6.794;2024-03-06T09:09:16;72.40;;;28.33;;
5569;SDS011;2808;51.240;6.794;2024-03-06T09:11:46;68.17;;;28.77;;
5569;SDS011;2808;51.240;6.794;2024-03-06T09:14:13;65.53;;;28.40;;
5569;SDS011;2808;51.240;6.794;2024-03-06T09:16:41;61.00;;;27.50;;
5569;SDS011;2808;51.240;6.794;2024-03-06T09:19:08;58.80;;;25.57;;
5569;SDS011;2808;51.240;6.794;2024-03-06T09:21:36;58.77;;;26.10;;
5569;SDS011;2808;51.240;6.794;2024-03-06T09:24:04;57.53;;;25.10;;
5569;SDS011;2808;51.240;6.794;2024-03-06T09:26:31;53.10;;;22.90;;
5569;SDS011;2808;51.240;6.794;2024-03-06T09:29:01;57.40;;;23.97;;
5569;SDS011;2808;51.240;6.794;2024-03-06T09:31:29;50.33;;;23.07;;
5569;SDS011;2808;51.240;6.794;2024-03-06T09:33:56;51.47;;;21.50;;
5569;SDS011;2808;51.240;6.794;2024-03-06T09:36:24;51.60;;;22.60;;
5569;SDS011;2808;51.240;6.794;2024-03-06T09:38:51;47.93;;;21.83;;
5569;SDS011;2808;51.240;6.794;2024-03-06T09:41:19;52.30;;;21.90;;
5569;SDS011;2808;51.240;6.794;2024-03-06T09:43:46;44.17;;;20.90;;
5569;SDS011;2808;51.240;6.794;2024-03-06T09:46:15;44.60;;;22.73;;
5569;SDS011;2808;51.240;6.794;2024-03-06T09:48:47;56.40;;;22.70;;
5569;SDS011;2808;51.240;6.794;2024-03-06T09:51:15;50.07;;;22.13;;
5569;SDS011;2808;51.240;6.794;2024-03-06T09:53:43;55.07;;;22.27;;
5569;SDS011;2808;51.240;6.794;2024-03-06T09:56:10;53.07;;;21.90;;
5569;SDS011;2808;51.240;6.794;2024-03-06T09:58:38;47.47;;;22.00;;
5569;SDS011;2808;51.240;6.794;2024-03-06T10:01:05;51.47;;;21.90;;
5569;SDS011;2808;51.240;6.794;2024-03-06T10:03:38;49.43;;;23.17;;
5569;SDS011;2808;51.240;6.794;2024-03-06T10:06:10;47.43;;;22.30;;
5569;SDS011;2808;51.240;6.794;2024-03-06T10:08:41;49.50;;;23.77;;
5569;SDS011;2808;51.240;6.794;2024-03-06T10:11:11;53.33;;;24.40;;
5569;SDS011;2808;51.240;6.794;2024-03-06T10:13:39;48.57;;;22.87;;
5569;SDS011;2808;51.240;6.794;2024-03-06T10:16:06;50.40;;;23.97;;
5569;SDS011;2808;51.240;6.794;2024-03-06T10:18:36;49.33;;;23.30;;
5569;SDS011;2808;51.240;6.794;2024-03-06T10:21:06;49.13;;;23.43;;
5569;SDS011;2808;51.240;6.794;2024-03-06T10:24:02;51.60;;;22.70;;
5569;SDS011;2808;51.240;6.794;2024-03-06T10:26:31;56.20;;;24.70;;
5569;SDS011;2808;51.240;6.794;2024-03-06T10:28:59;56.73;;;24.80;;
5569;SDS011;2808;51.240;6.794;2024-03-06T10:31:27;53.50;;;24.10;;
5569;SDS011;2808;51.240;6.794;2024-03-06T10:33:56;60.70;;;24.77;;
5569;SDS011;2808;51.240;6.794;2024-03-06T10:36:26;52.53;;;24.83;;
5569;SDS011;2808;51.240;6.794;2024-03-06T10:38:53;58.07;;;27.17;;
5569;SDS011;2808;51.240;6.794;2024-03-06T10:41:22;56.10;;;25.97;;
5569;SDS011;2808;51.240;6.794;2024-03-06T10:43:50;52.70;;;25.30;;
5569;SDS011;2808;51.240;6.794;2024-03-06T10:46:20;57.17;;;26.57;;
5569;SDS011;2808;51.240;6.794;2024-03-06T10:48:49;59.17;;;26.87;;
5569;SDS011;2808;51.240;6.794;2024-03-06T10:51:19;58.37;;;27.27;;
5569;SDS011;2808;51.240;6.794;2024-03-06T10:53:47;59.70;;;26.87;;
5569;SDS011;2808;51.240;6.794;2024-03-06T10:56:16;59.67;;;26.90;;
5569;SDS011;2808;51.240;6.794;2024-03-06T10:58:44;55.57;;;26.93;;
5569;SDS011;2808;51.240;6.794;2024-03-06T11:01:15;58.37;;;27.43;;
5569;SDS011;2808;51.240;6.794;2024-03-06T11:03:44;64.70;;;28.70;;
5569;SDS011;2808;51.240;6.794;2024-03-06T11:06:13;68.87;;;31.73;;
5569;SDS011;2808;51.240;6.794;2024-03-06T11:08:42;63.43;;;29.73;;
5569;SDS011;2808;51.240;6.794;2024-03-06T11:11:19;68.73;;;31.13;;
5569;SDS011;2808;51.240;6.794;2024-03-06T11:13:47;66.30;;;30.57;;
5569;SDS011;2808;51.240;6.794;2024-03-06T11:16:15;66.60;;;30.70;;
5569;SDS011;2808;51.240;6.794;2024-03-06T11:18:45;60.13;;;28.60;;
5569;SDS011;2808;51.240;6.794;2024-03-06T11:21:28;66.40;;;31.10;;
5569;SDS011;2808;51.240;6.794;2024-03-06T11:24:16;64.97;;;31.50;;
5569;SDS011;2808;51.240;6.794;2024-03-06T11:26:48;64.47;;;28.30;;
5569;SDS011;2808;51.240;6.794;2024-03-06T11:29:16;64.23;;;29.23;;
5569;SDS011;2808;51.240;6.794;2024-03-06T11:32:00;59.10;;;28.43;;
5569;SDS011;2808;51.240;6.794;2024-03-06T11:34:37;59.03;;;27.43;;
5569;SDS011;2808;51.240;6.794;2024-03-06T11:37:05;62.43;;;28.30;;
5569;SDS011;2808;51.240;6.794;2024-03-06T11:39:35;63.57;;;28.47;;
5569;SDS011;2808;51.240;6.794;2024-03-06T11:42:04;53.60;;;25.63;;
5569;SDS011;2808;51.240;6.794;2024-03-06T11:44:33;58.00;;;27.73;;
5569;SDS011;2808;51.240;6.794;2024-03-06T11:47:06;57.63;;;25.60;;
5569;SDS011;2808;51.240;6.794;2024-03-06T11:49:39;53.03;;;24.97;;
5569;SDS011;2808;51.240;6.794;2024-03-06T11:52:08;46.10;;;23.63;;
5569;SDS011;2808;51.240;6.794;2024-03-06T11:54:37;54.23;;;25.10;;
5569;SDS011;2808;51.240;6.794;2024-03-06T11:57:05;53.03;;;25.13;;
5569;SDS011;2808;51.240;6.794;2024-03-06T11:59:36;53.77;;;23.63;;
5569;SDS011;2808;51.240;6.794;2024-03-06T12:02:04;51.17;;;24.97;;
5569;SDS011;2808;51.240;6.794;2024-03-06T12:04:43;50.00;;;22.93;;
5569;SDS011;2808;51.240;6.794;2024-03-06T12:07:12;49.27;;;23.60;;
5569;SDS011;2808;51.240;6.794;2024-03-06T12:09:42;48.50;;;23.70;;
5569;SDS011;2808;51.240;6.794;2024-03-06T12:12:10;55.33;;;25.07;;
5569;SDS011;2808;51.240;6.794;2024-03-06T12:17:29;50.53;;;24.10;;
5569;SDS011;2808;51.240;6.794;2024-03-06T12:19:57;44.27;;;22.43;;
5569;SDS011;2808;51.240;6.794;2024-03-06T12:22:30;44.97;;;21.87;;
5569;SDS011;2808;51.240;6.794;2024-03-06T12:25:00;40.40;;;21.10;;
5569;SDS011;2808;51.240;6.794;2024-03-06T12:27:31;46.10;;;21.40;;
5569;SDS011;2808;51.240;6.794;2024-03-06T12:30:08;38.90;;;21.10;;
5569;SDS011;2808;51.240;6.794;2024-03-06T12:32:38;37.80;;;19.80;;
5569;SDS011;2808;51.240;6.794;2024-03-06T12:35:07;43.17;;;20.43;;
5569;SDS011;2808;51.240;6.794;2024-03-06T12:37:34;39.80;;;19.73;;
5569;SDS011;2808;51.240;6.794;2024-03-06T12:40:06;36.87;;;18.60;;
5569;SDS011;2808;51.240;6.794;2024-03-06T12:42:38;33.50;;;16.70;;
5569;SDS011;2808;51.240;6.794;2024-03-06T12:45:06;30.70;;;15.43;;
5569;SDS011;2808;51.240;6.794;2024-03-06T12:47:34;30.97;;;15.67;;
5569;SDS011;2808;51.240;6.794;2024-03-06T12:50:02;33.10;;;15.10;;
5569;SDS011;2808;51.240;6.794;2024-03-06T12:52:32;28.67;;;14.53;;
5569;SDS011;2808;51.240;6.794;2024-03-06T12:55:00;27.70;;;14.13;;
5569;SDS011;2808;51.240;6.794;2024-03-06T12:57:31;31.07;;;15.93;;
5569;SDS011;2808;51.240;6.794;2024-03-06T12:59:59;29.20;;;14.43;;
5569;SDS011;2808;51.240;6.794;2024-03-06T13:02:27;23.07;;;12.83;;
5569;SDS011;2808;51.240;6.794;2024-03-06T13:04:57;24.93;;;13.80;;
5569;SDS011;2808;51.240;6.794;2024-03-06T13:07:26;28.73;;;13.30;;
5569;SDS011;2808;51.240;6.794;2024-03-06T13:09:54;28.23;;;12.87;;
5569;SDS011;2808;51.240;6.794;2024-03-06T13:12:22;22.27;;;12.67;;
5569;SDS011;2808;51.240;6.794;2024-03-06T13:14:51;22.87;;;11.87;;
5569;SDS011;2808;51.240;6.794;2024-03-06T13:17:19;22.03;;;11.10;;
5569;SDS011;2808;51.240;6.794;2024-03-06T13:19:46;17.03;;;9.57;;
5569;SDS011;2808;51.240;6.794;2024-03-06T13:22:14;16.67;;;9.03;;
5569;SDS011;2808;51.240;6.794;2024-03-06T13:24:41;18.00;;;9.43;;
5569;SDS011;2808;51.240;6.794;2024-03-06T13:27:09;19.23;;;10.87;;
5569;SDS011;2808;51.240;6.794;2024-03-06T13:29:36;19.47;;;11.03;;
5569;SDS011;2808;51.240;6.794;2024-03-06T13:32:06;23.07;;;10.53;;
5569;SDS011;2808;51.240;6.794;2024-03-06T13:34:33;21.23;;;10.33;;
5569;SDS011;2808;51.240;6.794;2024-03-06T13:37:01;26.63;;;15.00;;
5569;SDS011;2808;51.240;6.794;2024-03-06T13:39:35;21.07;;;10.10;;
5569;SDS011;2808;51.240;6.794;2024-03-06T13:42:04;18.33;;;9.43;;
5569;SDS011;2808;51.240;6.794;2024-03-06T13:44:33;14.73;;;8.67;;
5569;SDS011;2808;51.240;6.794;2024-03-06T13:47:01;15.63;;;8.33;;
5569;SDS011;2808;51.240;6.794;2024-03-06T13:49:37;17.30;;;9.37;;
5569;SDS011;2808;51.240;6.794;2024-03-06T13:52:06;27.90;;;13.50;;
5569;SDS011;2808;51.240;6.794;2024-03-06T13:54:35;34.23;;;17.90;;
5569;SDS011;2808;51.240;6.794;2024-03-06T13:57:05;32.80;;;17.63;;
5569;SDS011;2808;51.240;6.794;2024-03-06T13:59:33;34.23;;;16.83;;
5569;SDS011;2808;51.240;6.794;2024-03-06T14:02:02;36.87;;;17.07;;
5569;SDS011;2808;51.240;6.794;2024-03-06T14:04:30;32.67;;;16.57;;
5569;SDS011;2808;51.240;6.794;2024-03-06T14:06:59;30.17;;;15.20;;
5569;SDS011;2808;51.240;6.794;2024-03-06T14:09:27;29.00;;;13.90;;
5569;SDS011;2808;51.240;6.794;2024-03-06T14:11:55;31.00;;;15.87;;
5569;SDS011;2808;51.240;6.794;2024-03-06T14:14:22;29.60;;;15.27;;
5569;SDS011;2808;51.240;6.794;2024-03-06T14:16:50;32.00;;;16.03;;
5569;SDS011;2808;51.240;6.794;2024-03-06T14:19:18;39.33;;;18.43;;
5569;SDS011;2808;51.240;6.794;2024-03-06T14:21:46;25.60;;;13.97;;
5569;SDS011;2808;51.240;6.794;2024-03-06T14:24:15;25.30;;;14.60;;
5569;SDS011;2808;51.240;6.794;2024-03-06T14:26:46;27.13;;;14.07;;
5569;SDS011;2808;51.240;6.794;2024-03-06T14:29:15;30.83;;;14.83;;
5569;SDS011;2808;51.240;6.794;2024-03-06T14:31:42;28.77;;;13.60;;
5569;SDS011;2808;51.240;6.794;2024-03-06T14:34:10;38.13;;;20.43;;
5569;SDS011;2808;51.240;6.794;2024-03-06T14:36:49;29.13;;;14.87;;
5569;SDS011;2808;51.240;6.794;2024-03-06T14:39:18;31.70;;;15.27;;
5569;SDS011;2808;51.240;6.794;2024-03-06T14:41:47;32.73;;;15.70;;
5569;SDS011;2808;51.240;6.794;2024-03-06T14:44:14;32.03;;;15.00;;
5569;SDS011;2808;51.240;6.794;2024-03-06T14:46:42;32.70;;;15.60;;
5569;SDS011;2808;51.240;6.794;2024-03-06T14:49:10;35.73;;;15.60;;
5569;SDS011;2808;51.240;6.794;2024-03-06T14:51:37;30.67;;;14.50;;
5569;SDS011;2808;51.240;6.794;2024-03-06T14:54:05;33.50;;;15.70;;
5569;SDS011;2808;51.240;6.794;2024-03-06T14:56:34;34.47;;;17.17;;
5569;SDS011;2808;51.240;6.794;2024-03-06T14:59:03;30.50;;;15.07;;
5569;SDS011;2808;51.240;6.794;2024-03-06T15:01:30;26.53;;;14.33;;
5569;SDS011;2808;51.240;6.794;2024-03-06T15:03:58;31.83;;;14.47;;
5569;SDS011;2808;51.240;6.794;2024-03-06T15:06:26;28.80;;;14.43;;